createdAt,value
2019-04-06T00:00:45.086Z,11.50
2019-04-06T00:02:51.966Z,12.07
2019-04-06T00:04:58.906Z,11.40
2019-04-06T00:07:07.240Z,10.83
2019-04-06T00:09:14.426Z,11.80
2019-04-06T00:11:24.251Z,12.33
2019-04-06T00:13:32.520Z,12.17
2019-04-06T00:15:40.481Z,11.37
2019-04-06T00:17:48.633Z,11.63
2019-04-06T00:19:55.315Z,10.73
2019-04-06T00:22:02.070Z,12.20
2019-04-06T00:24:08.888Z,13.03
2019-04-06T00:26:15.605Z,11.33
2019-04-06T00:28:22.836Z,11.80
2019-04-06T00:30:31.214Z,12.47
2019-04-06T00:32:56.744Z,11.77
2019-04-06T00:35:04.381Z,12.40
2019-04-06T00:37:11.136Z,12.43
2019-04-06T00:39:18.828Z,11.30
2019-04-06T00:41:26.094Z,11.60
2019-04-06T00:43:33.434Z,12.00
2019-04-06T00:45:40.263Z,11.13
2019-04-06T00:47:46.858Z,11.27
2019-04-06T00:49:54.948Z,11.47
2019-04-06T00:52:01.697Z,11.77
2019-04-06T00:54:08.526Z,10.97
2019-04-06T00:56:15.202Z,11.90
2019-04-06T00:58:22.098Z,12.20
2019-04-06T01:00:30.346Z,12.73
2019-04-06T01:02:38.363Z,11.70
2019-04-06T01:04:45.586Z,12.87
2019-04-06T01:06:52.811Z,13.00
2019-04-06T01:09:00.151Z,13.37
2019-04-06T01:11:08.852Z,13.40
2019-04-06T01:13:17.019Z,11.57
2019-04-06T01:15:24.206Z,11.57
2019-04-06T01:17:32.087Z,11.97
2019-04-06T01:19:38.991Z,12.93
2019-04-06T01:21:46.682Z,11.30
2019-04-06T01:23:53.693Z,12.33
2019-04-06T01:26:06.982Z,12.80
2019-04-06T01:28:08.770Z,13.07
2019-04-06T01:30:15.951Z,12.73
2019-04-06T01:32:23.780Z,13.77
2019-04-06T01:34:30.242Z,10.33
2019-04-06T01:36:37.362Z,11.73
2019-04-06T01:38:43.850Z,12.43
2019-04-06T01:40:51.833Z,11.20
2019-04-06T01:42:58.811Z,11.60
2019-04-06T01:45:07.962Z,11.03
2019-04-06T01:47:15.113Z,12.63
2019-04-06T01:49:22.334Z,12.17
2019-04-06T01:51:29.406Z,12.40
2019-04-06T01:53:38.348Z,11.13
2019-04-06T01:55:46.194Z,12.50
2019-04-06T01:57:53.303Z,11.73
2019-04-06T02:00:00.503Z,11.37
2019-04-06T02:02:09.551Z,12.73
2019-04-06T02:04:16.907Z,13.17
2019-04-06T02:06:24.295Z,12.97
2019-04-06T02:08:31.700Z,11.93
2019-04-06T02:10:38.853Z,12.27
2019-04-06T02:12:45.746Z,12.47
2019-04-06T02:14:52.906Z,12.47
2019-04-06T02:17:00.533Z,11.50
2019-04-06T02:19:07.631Z,11.70
2019-04-06T02:21:14.912Z,12.30
2019-04-06T02:23:21.773Z,11.77
2019-04-06T02:25:28.836Z,12.50
2019-04-06T02:27:36.093Z,11.70
2019-04-06T02:29:43.882Z,11.77
2019-04-06T02:31:58.718Z,11.10
2019-04-06T02:34:24.015Z,11.13
2019-04-06T02:36:32.370Z,11.60
2019-04-06T02:38:49.654Z,12.40
2019-04-06T02:41:05.011Z,12.90
2019-04-06T02:43:16.551Z,12.03
2019-04-06T02:45:23.372Z,11.80
2019-04-06T02:47:31.355Z,12.00
2019-04-06T02:49:38.306Z,11.67
2019-04-06T02:51:45.636Z,11.80
2019-04-06T02:53:52.929Z,12.03
2019-04-06T02:56:01.430Z,11.43
2019-04-06T02:58:08.683Z,12.50
2019-04-06T03:00:15.814Z,12.63
2019-04-06T03:02:23.011Z,12.17
2019-04-06T03:04:29.808Z,11.60
2019-04-06T03:06:37.332Z,10.43
2019-04-06T03:08:44.225Z,10.43
2019-04-06T03:10:52.889Z,12.03
2019-04-06T03:13:00.808Z,11.07
2019-04-06T03:15:08.211Z,11.63
2019-04-06T03:17:15.295Z,11.63
2019-04-06T03:19:22.059Z,12.33
2019-04-06T03:21:28.967Z,11.17
2019-04-06T03:23:49.602Z,12.07
2019-04-06T03:25:47.041Z,12.50
2019-04-06T03:27:54.810Z,12.77
2019-04-06T03:30:02.363Z,12.10
2019-04-06T03:32:09.681Z,12.27
2019-04-06T03:34:20.600Z,12.13
2019-04-06T03:36:25.008Z,12.23
2019-04-06T03:38:32.947Z,12.43
2019-04-06T03:40:40.338Z,12.23
2019-04-06T03:42:47.182Z,12.37
2019-04-06T03:44:54.076Z,11.07
2019-04-06T03:47:00.984Z,11.87
2019-04-06T03:49:08.188Z,12.23
2019-04-06T03:51:15.305Z,12.07
2019-04-06T03:53:22.546Z,11.07
2019-04-06T03:55:31.213Z,11.87
2019-04-06T03:57:38.459Z,10.50
2019-04-06T03:59:45.033Z,11.30
2019-04-06T04:01:52.209Z,12.07
2019-04-06T04:04:20.915Z,11.50
2019-04-06T04:06:35.240Z,12.57
2019-04-06T04:08:42.743Z,11.97
2019-04-06T04:10:49.600Z,12.50
2019-04-06T04:12:56.884Z,11.47
2019-04-06T04:15:03.695Z,11.93
2019-04-06T04:17:10.441Z,11.27
2019-04-06T04:19:18.020Z,12.97
2019-04-06T04:21:26.035Z,12.57
2019-04-06T04:23:32.889Z,11.87
2019-04-06T04:25:39.291Z,12.87
2019-04-06T04:27:47.519Z,12.33
2019-04-06T04:29:55.053Z,11.13
2019-04-06T04:32:01.806Z,11.00
2019-04-06T04:34:09.121Z,11.37
2019-04-06T04:36:16.774Z,11.47
2019-04-06T04:38:23.727Z,11.80
2019-04-06T04:40:30.262Z,11.50
2019-04-06T04:42:36.854Z,12.10
2019-04-06T04:44:43.403Z,11.93
2019-04-06T04:46:49.946Z,10.93
2019-04-06T04:48:56.962Z,12.40
2019-04-06T04:51:07.608Z,12.50
2019-04-06T04:53:14.150Z,12.03
2019-04-06T04:55:22.287Z,12.00
2019-04-06T04:57:39.618Z,12.20
2019-04-06T04:59:38.179Z,12.43
2019-04-06T05:01:44.933Z,11.13
2019-04-06T05:03:51.809Z,11.30
2019-04-06T05:06:00.151Z,13.43
2019-04-06T05:08:07.415Z,11.47
2019-04-06T05:10:16.035Z,12.23
2019-04-06T05:12:22.853Z,12.37
2019-04-06T05:15:06.303Z,12.10
2019-04-06T05:17:13.911Z,12.80
2019-04-06T05:19:21.348Z,11.90
2019-04-06T05:21:30.101Z,13.47
2019-04-06T05:23:38.197Z,11.70
2019-04-06T05:25:45.139Z,12.20
2019-04-06T05:27:57.661Z,12.53
2019-04-06T05:30:07.187Z,11.77
2019-04-06T05:32:14.477Z,11.87
2019-04-06T05:34:21.556Z,11.83
2019-04-06T05:36:31.065Z,11.27
2019-04-06T05:38:37.564Z,11.70
2019-04-06T05:40:44.414Z,11.23
2019-04-06T05:42:52.226Z,12.10
2019-04-06T05:45:00.144Z,12.13
2019-04-06T05:47:07.245Z,11.97
2019-04-06T05:49:13.991Z,13.07
2019-04-06T05:51:20.975Z,10.23
2019-04-06T05:53:27.843Z,13.30
2019-04-06T05:55:35.031Z,11.83
2019-04-06T05:57:43.193Z,10.80
2019-04-06T05:59:49.823Z,13.13
2019-04-06T06:01:56.797Z,11.67
2019-04-06T06:04:04.238Z,12.50
2019-04-06T06:06:12.594Z,12.53
2019-04-06T06:08:19.891Z,11.47
2019-04-06T06:10:28.095Z,11.87
2019-04-06T06:12:35.487Z,12.57
2019-04-06T06:14:42.568Z,14.13
2019-04-06T06:16:48.926Z,11.93
2019-04-06T06:18:58.047Z,12.53
2019-04-06T06:21:04.683Z,12.20
2019-04-06T06:23:11.949Z,11.87
2019-04-06T06:25:18.845Z,12.50
2019-04-06T06:27:26.117Z,11.17
2019-04-06T06:29:32.970Z,11.77
2019-04-06T06:31:40.518Z,13.07
2019-04-06T06:33:47.508Z,12.23
2019-04-06T06:35:55.670Z,13.27
2019-04-06T06:38:02.670Z,13.63
2019-04-06T06:40:10.116Z,13.60
2019-04-06T06:42:16.781Z,12.67
2019-04-06T06:44:23.532Z,12.43
2019-04-06T06:46:30.490Z,12.47
2019-04-06T06:48:37.626Z,13.13
2019-04-06T06:50:44.695Z,12.63
2019-04-06T06:52:51.666Z,12.27
2019-04-06T06:54:59.023Z,11.40
2019-04-06T06:57:06.034Z,12.13
2019-04-06T06:59:12.523Z,12.87
2019-04-06T07:01:19.312Z,12.53
2019-04-06T07:03:26.112Z,12.90
2019-04-06T07:05:33.233Z,11.67
2019-04-06T07:07:40.194Z,15.97
2019-04-06T07:09:47.182Z,12.60
2019-04-06T07:11:53.792Z,13.13
2019-04-06T07:14:00.615Z,12.00
2019-04-06T07:16:08.337Z,13.73
2019-04-06T07:18:15.438Z,13.50
2019-04-06T07:20:23.653Z,10.23
2019-04-06T07:22:31.497Z,13.47
2019-04-06T07:24:38.692Z,12.17
2019-04-06T07:26:46.351Z,12.00
2019-04-06T07:28:53.363Z,11.63
2019-04-06T07:31:00.219Z,12.07
2019-04-06T07:33:07.100Z,10.70
2019-04-06T07:35:15.303Z,12.77
2019-04-06T07:37:22.273Z,12.33
2019-04-06T07:39:29.593Z,11.47
2019-04-06T07:41:37.973Z,12.23
2019-04-06T07:43:44.918Z,11.33
2019-04-06T07:45:52.967Z,13.53
2019-04-06T07:48:02.329Z,10.97
2019-04-06T07:50:11.053Z,10.93
2019-04-06T07:52:18.312Z,11.23
2019-04-06T07:54:29.725Z,12.30
2019-04-06T07:56:36.512Z,11.17
2019-04-06T07:58:49.162Z,12.33
2019-04-06T08:00:52.582Z,10.90
2019-04-06T08:02:59.492Z,11.63
2019-04-06T08:05:07.327Z,10.43
2019-04-06T08:07:14.232Z,11.77
2019-04-06T08:09:21.121Z,10.97
2019-04-06T08:11:28.321Z,11.80
2019-04-06T08:13:35.151Z,11.30
2019-04-06T08:15:42.542Z,10.67
2019-04-06T08:17:49.661Z,11.20
2019-04-06T08:19:57.261Z,10.50
2019-04-06T08:22:04.325Z,10.13
2019-04-06T08:24:13.131Z,9.87
2019-04-06T08:26:20.292Z,10.67
2019-04-06T08:28:27.132Z,10.57
2019-04-06T08:30:44.683Z,11.50
2019-04-06T08:32:42.418Z,10.67
2019-04-06T08:34:51.987Z,10.50
2019-04-06T08:36:59.022Z,10.30
2019-04-06T08:39:08.225Z,9.93
2019-04-06T08:41:16.220Z,10.13
2019-04-06T08:43:23.134Z,9.73
2019-04-06T08:45:29.912Z,9.47
2019-04-06T08:47:37.075Z,10.43
2019-04-06T08:49:47.262Z,9.20
2019-04-06T08:51:54.072Z,10.00
2019-04-06T08:54:01.362Z,7.80
2019-04-06T08:56:09.759Z,9.57
2019-04-06T08:58:16.736Z,8.33
2019-04-06T09:00:23.812Z,8.43
2019-04-06T09:02:30.734Z,7.97
2019-04-06T09:04:37.875Z,7.30
2019-04-06T09:06:45.572Z,8.20
2019-04-06T09:08:54.413Z,8.43
2019-04-06T09:11:05.179Z,8.70
2019-04-06T09:13:25.584Z,8.43
2019-04-06T09:15:36.159Z,8.33
2019-04-06T09:17:45.151Z,8.20
2019-04-06T09:19:53.062Z,7.53
2019-04-06T09:22:04.122Z,7.97
2019-04-06T09:24:13.247Z,7.43
2019-04-06T09:26:20.331Z,8.57
2019-04-06T09:28:26.907Z,8.00
2019-04-06T09:30:34.329Z,8.30
2019-04-06T09:32:41.450Z,8.37
2019-04-06T09:34:49.814Z,8.17
2019-04-06T09:36:56.711Z,7.67
2019-04-06T09:39:06.970Z,7.73
2019-04-06T09:41:15.213Z,8.27
2019-04-06T09:43:23.735Z,8.83
2019-04-06T09:45:47.484Z,7.40
2019-04-06T09:48:02.522Z,7.90
2019-04-06T09:50:17.062Z,7.47
2019-04-06T09:52:26.717Z,6.83
2019-04-06T09:54:48.668Z,6.97
2019-04-06T09:57:15.032Z,7.03
2019-04-06T09:59:39.959Z,7.50
2019-04-06T10:01:47.372Z,6.40
2019-04-06T10:03:56.369Z,7.33
2019-04-06T10:06:12.623Z,5.87
2019-04-06T10:08:29.903Z,6.70
2019-04-06T10:10:39.642Z,7.73
2019-04-06T10:12:49.182Z,6.30
2019-04-06T10:14:57.683Z,7.03
2019-04-06T10:17:19.923Z,8.20
2019-04-06T10:19:53.854Z,8.00
2019-04-06T10:22:07.362Z,7.57
2019-04-06T10:24:18.743Z,7.30
2019-04-06T10:26:36.135Z,7.37
2019-04-06T10:28:50.316Z,8.17
2019-04-06T10:30:59.974Z,6.23
2019-04-06T10:33:15.635Z,7.50
2019-04-06T10:35:35.923Z,8.00
2019-04-06T10:38:01.654Z,7.47
2019-04-06T10:40:26.868Z,7.50
2019-04-06T10:42:36.203Z,7.47
2019-04-06T10:44:44.943Z,7.57
2019-04-06T10:47:05.620Z,9.43
2019-04-06T10:49:26.962Z,7.57
2019-04-06T10:51:52.316Z,9.03
2019-04-06T10:54:08.444Z,7.70
2019-04-06T10:56:20.519Z,8.07
2019-04-06T10:58:34.789Z,7.60
2019-04-06T11:00:47.056Z,7.43
2019-04-06T11:03:03.105Z,8.03
2019-04-06T11:05:20.757Z,7.53
2019-04-06T11:07:45.791Z,8.53
2019-04-06T11:09:58.841Z,7.33
2019-04-06T11:12:05.577Z,7.67
2019-04-06T11:14:27.016Z,7.27
2019-04-06T11:16:51.721Z,7.03
2019-04-06T11:18:58.511Z,6.10
2019-04-06T11:21:16.258Z,7.13
2019-04-06T11:23:33.968Z,7.07
2019-04-06T11:25:43.524Z,6.67
2019-04-06T11:27:50.400Z,6.80
2019-04-06T11:30:13.663Z,7.17
2019-04-06T11:32:22.588Z,6.40
2019-04-06T11:34:47.995Z,7.27
2019-04-06T11:36:55.049Z,6.83
2019-04-06T11:39:07.373Z,7.60
2019-04-06T11:41:34.730Z,8.43
2019-04-06T11:43:44.375Z,7.07
2019-04-06T11:45:54.316Z,8.00
2019-04-06T11:48:19.415Z,7.70
2019-04-06T11:50:26.198Z,7.17
2019-04-06T11:52:35.054Z,7.53
2019-04-06T11:54:44.562Z,6.77
2019-04-06T11:57:07.933Z,8.30
2019-04-06T11:59:34.817Z,8.27
2019-04-06T12:01:58.943Z,8.43
2019-04-06T12:04:08.328Z,8.00
2019-04-06T12:06:17.007Z,7.43
2019-04-06T12:08:42.789Z,6.57
2019-04-06T12:11:07.211Z,7.77
2019-04-06T12:13:25.640Z,7.60
2019-04-06T12:15:50.543Z,7.60
2019-04-06T12:18:17.895Z,7.73
2019-04-06T12:20:33.363Z,9.93
2019-04-06T12:22:50.547Z,7.63
2019-04-06T12:25:05.197Z,8.20
2019-04-06T12:27:22.782Z,7.20
2019-04-06T12:29:35.064Z,8.13
2019-04-06T12:31:55.887Z,9.07
2019-04-06T12:34:18.142Z,9.40
2019-04-06T12:36:28.050Z,8.40
2019-04-06T12:38:41.029Z,8.27
2019-04-06T12:40:58.890Z,7.27
2019-04-06T12:43:21.087Z,8.57
2019-04-06T12:45:46.229Z,7.70
2019-04-06T12:47:56.286Z,8.77
2019-04-06T12:50:11.028Z,8.30
2019-04-06T12:52:34.018Z,7.27
2019-04-06T12:54:50.409Z,7.80
2019-04-06T12:57:12.410Z,7.83
2019-04-06T12:59:43.770Z,7.97
2019-04-06T13:01:56.935Z,7.60
2019-04-06T13:04:21.503Z,8.13
2019-04-06T13:06:32.582Z,7.73
2019-04-06T13:08:46.595Z,8.93
2019-04-06T13:10:55.329Z,8.47
2019-04-06T13:13:07.124Z,7.70
2019-04-06T13:15:22.997Z,7.23
2019-04-06T13:17:50.657Z,9.13
2019-04-06T13:20:05.868Z,7.90
2019-04-06T13:22:31.027Z,8.43
2019-04-06T13:24:45.907Z,8.17
2019-04-06T13:26:54.557Z,7.87
2019-04-06T13:29:20.326Z,8.80
2019-04-06T13:31:37.340Z,7.90
2019-04-06T13:33:55.444Z,7.63
2019-04-06T13:36:20.796Z,7.67
2019-04-06T13:38:34.885Z,7.60
2019-04-06T13:41:00.471Z,6.47
2019-04-06T13:43:17.044Z,6.90
2019-04-06T13:45:42.554Z,8.23
2019-04-06T13:48:04.236Z,8.70
2019-04-06T13:50:15.853Z,8.80
2019-04-06T13:52:24.911Z,7.93
2019-04-06T13:54:48.712Z,8.73
2019-04-06T13:56:55.501Z,6.63
2019-04-06T13:59:12.072Z,7.87
2019-04-06T14:01:36.623Z,7.90
2019-04-06T14:03:51.994Z,7.43
2019-04-06T14:06:10.648Z,7.50
2019-04-06T14:08:24.315Z,8.20
2019-04-06T14:10:39.979Z,8.50
2019-04-06T14:12:53.684Z,8.10
2019-04-06T14:15:11.098Z,7.97
2019-04-06T14:17:19.977Z,7.93
2019-04-06T14:19:27.557Z,7.43
2019-04-06T14:21:36.699Z,7.80
2019-04-06T14:23:48.935Z,7.37
2019-04-06T14:26:05.406Z,7.57
2019-04-06T14:28:33.185Z,8.00
2019-04-06T14:30:44.657Z,10.43
2019-04-06T14:32:56.084Z,8.67
2019-04-06T14:35:04.384Z,10.47
2019-04-06T14:37:12.696Z,8.27
2019-04-06T14:39:37.284Z,7.93
2019-04-06T14:41:52.036Z,8.27
2019-04-06T14:44:09.365Z,8.70
2019-04-06T14:46:21.016Z,7.97
2019-04-06T14:48:32.584Z,7.77
2019-04-06T14:50:48.941Z,7.70
2019-04-06T14:53:01.323Z,9.10
2019-04-06T14:55:23.483Z,8.47
2019-04-06T14:57:46.509Z,9.13
2019-04-06T14:59:56.747Z,8.60
2019-04-06T15:02:11.441Z,8.83
2019-04-06T15:04:22.500Z,8.37
2019-04-06T15:06:32.782Z,8.03
2019-04-06T15:08:45.857Z,8.73
2019-04-06T15:10:58.838Z,8.40
2019-04-06T15:13:07.580Z,7.57
2019-04-06T15:15:18.900Z,7.73
2019-04-06T15:17:30.636Z,8.00
2019-04-06T15:19:42.213Z,7.93
2019-04-06T15:21:58.667Z,7.40
2019-04-06T15:24:12.667Z,7.37
2019-04-06T15:26:21.987Z,8.83
2019-04-06T15:28:28.827Z,8.37
2019-04-06T15:30:53.905Z,8.73
2019-04-06T15:33:15.702Z,8.43
2019-04-06T15:35:36.559Z,7.70
2019-04-06T15:38:02.006Z,8.47
2019-04-06T15:40:12.814Z,7.63
2019-04-06T15:42:21.731Z,8.00
2019-04-06T15:44:29.005Z,9.40
2019-04-06T15:46:41.431Z,8.30
2019-04-06T15:49:02.434Z,9.10
2019-04-06T15:51:27.838Z,7.53
2019-04-06T15:53:34.634Z,8.50
2019-04-06T15:55:44.570Z,8.10
2019-04-06T15:57:55.044Z,7.77
2019-04-06T16:00:04.247Z,8.17
2019-04-06T16:02:31.391Z,8.33
2019-04-06T16:04:40.261Z,9.00
2019-04-06T16:06:48.928Z,9.53
2019-04-06T16:09:03.518Z,7.80
2019-04-06T16:11:10.676Z,9.33
2019-04-06T16:13:22.497Z,8.47
2019-04-06T16:15:46.622Z,9.27
2019-04-06T16:18:06.600Z,9.17
2019-04-06T16:20:26.121Z,9.00
2019-04-06T16:22:50.011Z,8.03
2019-04-06T16:25:07.979Z,8.70
2019-04-06T16:27:24.934Z,8.50
2019-04-06T16:29:48.463Z,8.80
2019-04-06T16:31:57.908Z,9.87
2019-04-06T16:34:06.540Z,9.60
2019-04-06T16:36:32.857Z,9.97
2019-04-06T16:39:01.196Z,9.67
2019-04-06T16:41:12.225Z,9.63
2019-04-06T16:43:20.570Z,10.30
2019-04-06T16:45:33.655Z,9.90
2019-04-06T16:47:52.727Z,8.97
2019-04-06T16:50:08.700Z,8.97
2019-04-06T16:52:27.168Z,9.27
2019-04-06T16:54:48.352Z,9.37
2019-04-06T16:57:03.187Z,9.93
2019-04-06T16:59:28.873Z,10.60
2019-04-06T17:01:37.665Z,9.63
2019-04-06T17:03:47.678Z,10.03
2019-04-06T17:05:57.152Z,10.27
2019-04-06T17:08:23.225Z,9.40
2019-04-06T17:10:32.421Z,9.80
2019-04-06T17:12:46.144Z,10.10
2019-04-06T17:15:04.085Z,9.37
2019-04-06T17:17:13.318Z,9.13
2019-04-06T17:19:38.446Z,10.33
2019-04-06T17:21:52.120Z,9.37
2019-04-06T17:24:11.602Z,9.93
2019-04-06T17:26:26.194Z,10.07
2019-04-06T17:28:43.456Z,8.97
2019-04-06T17:31:07.784Z,9.83
2019-04-06T17:33:30.629Z,10.20
2019-04-06T17:35:56.113Z,10.40
2019-04-06T17:38:20.092Z,9.73
2019-04-06T17:40:47.225Z,10.80
2019-04-06T17:43:08.588Z,10.10
2019-04-06T17:45:17.431Z,10.97
2019-04-06T17:47:24.355Z,10.07
2019-04-06T17:49:40.370Z,9.70
2019-04-06T17:52:05.670Z,9.47
2019-04-06T17:54:29.887Z,9.67
2019-04-06T17:56:55.139Z,10.20
2019-04-06T17:59:12.064Z,9.63
2019-04-06T18:01:26.865Z,9.80
2019-04-06T18:03:40.754Z,9.63
2019-04-06T18:06:08.082Z,9.53
2019-04-06T18:08:20.203Z,9.83
2019-04-06T18:10:40.122Z,10.63
2019-04-06T18:13:08.721Z,10.60
2019-04-06T18:15:16.534Z,10.70
2019-04-06T18:17:24.788Z,9.87
2019-04-06T18:19:36.011Z,10.03
2019-04-06T18:21:44.634Z,11.00
2019-04-06T18:23:52.525Z,11.17
2019-04-06T18:26:02.950Z,10.43
2019-04-06T18:28:10.618Z,11.70
2019-04-06T18:30:18.217Z,11.30
2019-04-06T18:32:30.285Z,10.00
2019-04-06T18:34:38.760Z,10.13
2019-04-06T18:37:02.701Z,9.57
2019-04-06T18:39:11.841Z,10.97
2019-04-06T18:41:19.566Z,12.00
2019-04-06T18:43:27.463Z,11.70
2019-04-06T18:45:35.007Z,10.73
2019-04-06T18:47:46.253Z,10.20
2019-04-06T18:49:53.688Z,14.17
2019-04-06T18:52:01.065Z,11.37
2019-04-06T18:54:09.416Z,13.40
2019-04-06T18:58:32.104Z,11.07
2019-04-06T19:00:40.311Z,11.73
2019-04-06T19:02:47.929Z,12.23
2019-04-06T19:04:56.906Z,12.90
2019-04-06T19:07:05.010Z,12.10
2019-04-06T19:09:22.450Z,12.50
2019-04-06T19:11:21.342Z,12.53
2019-04-06T19:13:29.611Z,12.13
2019-04-06T19:15:37.694Z,13.57
2019-04-06T19:17:45.295Z,12.70
2019-04-06T19:19:52.796Z,12.50
2019-04-06T19:22:00.099Z,12.93
2019-04-06T19:24:07.684Z,13.17
2019-04-06T19:26:15.154Z,13.43
2019-04-06T19:28:23.045Z,12.37
2019-04-06T19:30:30.824Z,13.07
2019-04-06T19:32:38.300Z,12.67
2019-04-06T19:34:45.766Z,18.20
2019-04-06T19:36:53.622Z,13.67
2019-04-06T19:39:00.917Z,12.70
2019-04-06T19:41:10.245Z,12.20
2019-04-06T19:43:18.567Z,14.10
2019-04-06T19:45:26.009Z,15.40
2019-04-06T19:47:33.431Z,12.90
2019-04-06T19:49:40.834Z,12.80
2019-04-06T19:51:50.629Z,13.60
2019-04-06T19:53:59.483Z,14.53
2019-04-06T19:56:07.714Z,12.87
2019-04-06T19:58:15.582Z,12.60
2019-04-06T20:00:23.663Z,12.67
2019-04-06T20:02:33.450Z,13.27
2019-04-06T20:04:40.870Z,15.60
2019-04-06T20:06:49.397Z,13.47
2019-04-06T20:08:58.034Z,13.83
2019-04-06T20:11:06.343Z,13.53
2019-04-06T20:13:14.451Z,12.67
2019-04-06T20:15:22.357Z,13.40
2019-04-06T20:17:29.838Z,15.30
2019-04-06T20:19:37.739Z,15.47
2019-04-06T20:21:45.333Z,12.50
2019-04-06T20:23:53.922Z,15.23
2019-04-06T20:26:01.187Z,15.30
2019-04-06T20:28:08.854Z,15.80
2019-04-06T20:30:17.508Z,19.37
2019-04-06T20:32:25.396Z,29.70
2019-04-06T20:34:32.439Z,18.10
2019-04-06T20:36:43.070Z,20.27
2019-04-06T20:38:50.197Z,17.53
2019-04-06T20:40:58.479Z,21.37
2019-04-06T20:43:05.251Z,21.17
2019-04-06T20:45:14.161Z,18.00
2019-04-06T20:47:22.267Z,13.77
2019-04-06T20:49:29.722Z,16.90
2019-04-06T20:51:37.051Z,15.90
2019-04-06T20:53:44.531Z,15.97
2019-04-06T20:55:51.880Z,15.33
2019-04-06T20:57:59.222Z,15.83
2019-04-06T21:00:08.755Z,15.47
2019-04-06T21:02:20.873Z,15.83
2019-04-06T21:04:28.457Z,16.50
2019-04-06T21:06:37.036Z,14.80
2019-04-06T21:08:44.414Z,15.13
2019-04-06T21:10:52.109Z,16.27
2019-04-06T21:12:59.882Z,15.27
2019-04-06T21:15:19.034Z,15.87
2019-04-06T21:17:19.639Z,15.13
2019-04-06T21:19:28.161Z,15.83
2019-04-06T21:21:38.097Z,15.10
2019-04-06T21:23:48.660Z,15.13
2019-04-06T21:25:57.184Z,14.73
2019-04-06T21:28:06.230Z,16.00
2019-04-06T21:30:15.145Z,14.83
2019-04-06T21:32:23.823Z,15.67
2019-04-06T21:34:30.465Z,14.60
2019-04-06T21:38:53.863Z,15.03
2019-04-06T21:41:00.635Z,14.93
2019-04-06T21:43:09.098Z,15.73
2019-04-06T21:45:18.426Z,16.20
2019-04-06T21:47:25.941Z,14.53
2019-04-06T21:49:33.548Z,15.67
2019-04-06T21:51:40.662Z,16.60
2019-04-06T21:53:47.964Z,16.40
2019-04-06T21:56:02.661Z,17.07
2019-04-06T21:58:04.197Z,16.27
2019-04-06T22:00:26.600Z,16.23
2019-04-06T22:02:35.458Z,16.97
2019-04-06T22:04:46.884Z,17.40
2019-04-06T22:06:55.560Z,16.97
2019-04-06T22:09:08.177Z,16.57
2019-04-06T22:11:18.563Z,16.40
2019-04-06T22:13:31.938Z,34.60
2019-04-06T22:15:41.906Z,22.00
2019-04-06T22:17:50.561Z,19.90
2019-04-06T22:20:02.998Z,17.90
2019-04-06T22:22:11.787Z,20.93
2019-04-06T22:24:19.534Z,18.43
2019-04-06T22:26:27.454Z,16.00
2019-04-06T22:28:34.965Z,17.67
2019-04-06T22:30:43.163Z,20.03
2019-04-06T22:32:51.722Z,21.00
2019-04-06T22:34:58.620Z,22.43
2019-04-06T22:37:05.422Z,17.70
2019-04-06T22:39:12.498Z,20.87
2019-04-06T22:41:19.443Z,17.63
2019-04-06T22:43:27.511Z,15.47
2019-04-06T22:45:35.870Z,14.73
2019-04-06T22:47:43.140Z,15.37
2019-04-06T22:49:51.322Z,14.57
2019-04-06T22:52:00.882Z,14.97
2019-04-06T22:54:08.158Z,15.57
2019-04-06T22:56:15.050Z,15.03
2019-04-06T22:58:22.590Z,14.73
2019-04-06T23:00:41.236Z,14.40
2019-04-06T23:02:50.523Z,14.83
2019-04-06T23:05:01.701Z,14.73
2019-04-06T23:07:11.102Z,14.73
2019-04-06T23:09:17.784Z,14.70
2019-04-06T23:11:24.922Z,14.97
2019-04-06T23:13:31.806Z,14.10
2019-04-06T23:15:39.481Z,13.70
2019-04-06T23:17:46.637Z,16.17
2019-04-06T23:19:54.575Z,14.00
2019-04-06T23:22:03.602Z,14.40
2019-04-06T23:24:11.039Z,14.83
2019-04-06T23:26:17.936Z,14.10
2019-04-06T23:28:26.056Z,14.23
2019-04-06T23:30:32.911Z,14.57
2019-04-06T23:32:42.787Z,14.77
2019-04-06T23:37:07.291Z,15.53
2019-04-06T23:39:15.349Z,13.97
2019-04-06T23:41:23.255Z,14.23
2019-04-06T23:43:29.927Z,15.00
2019-04-06T23:45:36.808Z,14.00
2019-04-06T23:47:44.441Z,15.40
2019-04-06T23:49:51.794Z,17.30
2019-04-06T23:51:58.752Z,15.80
2019-04-06T23:54:05.577Z,15.53
2019-04-06T23:56:13.872Z,16.73
2019-04-06T23:58:21.001Z,15.33
